T-Mobile Croatia Speed Test Log

Minimum

Min 0.15 Mbps : 0.71 Mbps

Median

Median 18.92 Mbps : 9.61 Mbps

Maximum

Max 90.14 Mbps : 364.88 Mbps

Minimum

Minimum: 0.15 Mbps : 0.71 Mbps

Median

Median: 18.92 Mbps : 9.61 Mbps

Maximum

Maximum: 90.14 Mbps : 364.88 Mbps
Averages    
1 to 25 of 8044** for Host T-Mobile Croatia
Time
Speed Size    User ConnectID  TestID   
2/9/21 1:18:57 pm 9.57 Mbps 1.2 MB/s 14.3 MB1790906323804 BQoNAVmur 
2/9/21 1:18:34 pm 9.97 Mbps 1.25 MB/s 15 MB1790906323804 XwQxa7mU_ 
1/25/21 8:56:17 am 21.81 Mbps 2.73 MB/s 22.2 MB179090784148 HR kgT5tnupG 
1/25/21 8:52:00 am 4.1 Mbps 0.51 MB/s 2.4 MB179090784148 HR bmWiTmr1u 
1/25/21 8:51:39 am 3.73 Mbps 0.47 MB/s 6.7 MB179090784148 HR U3jKe8qJe 
1/25/21 8:50:35 am 20.67 Mbps 2.58 MB/s 14.2 MB179090784148 HR KAVT~EMu_ 
1/25/21 8:47:27 am 8.9 Mbps 1.11 MB/s 6.7 MB179090784148 HR QIVMNWfDV 
1/25/21 8:46:54 am 12.16 Mbps 1.52 MB/s 20.6 MB179090784148 HR R5OZNCCwc 
1/25/21 8:46:29 am 32.03 Mbps 4 MB/s 14.5 MB179090784148 HR ok~gt88Wo 
1/25/21 8:44:07 am 17.32 Mbps 2.17 MB/s 22.4 MB179090784148 HR SIX9t-tO8 
1/25/21 8:36:31 am 4.91 Mbps 0.61 MB/s 7 MB179090784148 HR j756QV~k1 
1/21/21 11:37:46 am 0.71 Mbps 0.09 MB/s 480 kB17909760233 HR EMa1eqKcO 
1/16/21 8:18:00 am 21.49 Mbps 2.69 MB/s 19.4 MB179092808978 Xjltq1BE_ 
1/16/21 8:17:45 am 20.52 Mbps 2.57 MB/s 15.4 MB179092808978 JK_vrfge6 
1/1/21 6:01:39 pm 4.89 Mbps 0.61 MB/s 2.3 MB17909627995 HR Mc55zi4Ft 
12/30/20 1:10:58 pm 87.17 Mbps 10.9 MB/s 76.9 MB179090784148 HR 6kDT0QHo0 
12/30/20 1:08:54 pm 90.14 Mbps 11.27 MB/s 76.9 MB179090784148 HR QwLyPl5KI 
12/26/20 10:44:25 am 5.83 Mbps 0.73 MB/s 2.5 MB1790903031437 3OodkJADU 
12/20/20 10:00:56 am 9.65 Mbps 1.21 MB/s 7.3 MB179097014537 HR 84uKp-SKO 
12/19/20 10:32:31 am 1.72 Mbps 0.22 MB/s 1.3 MB179096294108 HR XXvEU4K~P 
12/19/20 10:32:22 am 34.45 Mbps 4.31 MB/s 137 MB179096294108 HR cfyCRu6Qk 
12/8/20 6:30:48 am 33.61 Mbps 4.2 MB/s 39 MB179090784148 HR 72exbgqe1 
12/6/20 1:19:51 pm 0.15 Mbps 0.02 MB/s 480 kB179090506834 HR wZfJ-jOid 
12/2/20 7:45:13 am 11.29 Mbps 1.41 MB/s 12.8 MB1790912015889 HR vcmfk0fMl 
12/1/20 12:03:28 pm 364.88 Mbps 45.61 MB/s 100 MB17909479526 gaWjrOclA 
  
** Partial Results: The most recent results have been displayed. Results over 50 Mbps are highlighted.
Graphed results calculation
Displaying Internet Speed Test results for Host T-Mobile Croatia